Time;durP1;ratioP1;P1;durP2;ratioP2;P2;SDS_P1;SDS_P2;PMS_P1;PMS_P2;Temp;Humidity;BMP_temperature;BMP_pressure;BME280_temperature;BME280_humidity;BME280_pressure;Samples;Min_cycle;Max_cycle;Signal;HPM_P1;HPM_P2
2022/11/14 00:00:29;;;;;;;19.20;14.40;;;;;;;-145.18;100.00;46697.50;5030775;28;20282;-68
2022/11/14 00:02:59;;;;;;;18.13;13.93;;;;;;;-145.18;100.00;46699.47;5030756;28;20793;-68
2022/11/14 00:05:25;;;;;;;18.77;14.67;;;;;;;-145.18;100.00;46699.47;5030467;28;20290;-68
2022/11/14 00:07:50;;;;;;;20.00;14.97;;;;;;;-145.18;100.00;46703.38;5030476;28;20616;-68
2022/11/14 00:10:16;;;;;;;20.30;14.87;;;;;;;-145.18;100.00;46695.56;5030668;28;20044;-68
2022/11/14 00:12:42;;;;;;;20.50;14.33;;;;;;;-145.18;100.00;46703.38;5030398;28;20087;-68
2022/11/14 00:15:08;;;;;;;24.57;14.53;;;;;;;-145.18;100.00;46703.38;5030486;28;20095;-68
2022/11/14 00:17:33;;;;;;;18.97;14.03;;;;;;;-145.18;100.00;46701.41;5030607;28;20136;-68
2022/11/14 00:19:59;;;;;;;20.30;14.47;;;;;;;-145.18;100.00;46705.31;5030288;28;20333;-68
2022/11/14 00:22:24;;;;;;;19.00;14.93;;;;;;;-145.18;100.00;46707.28;5030265;28;20381;-68
2022/11/14 00:24:49;;;;;;;21.13;14.33;;;;;;;-145.18;100.00;46699.47;5030559;28;20142;-68
2022/11/14 00:27:15;;;;;;;23.17;14.13;;;;;;;-145.18;100.00;46701.41;5030059;28;20068;-68
2022/11/14 00:29:40;;;;;;;19.87;14.90;;;;;;;-145.18;100.00;46709.22;5030204;28;20111;-67
2022/11/14 00:32:06;;;;;;;19.73;14.37;;;;;;;-145.18;100.00;46693.59;5030011;28;20037;-67
2022/11/14 00:34:32;;;;;;;18.63;14.40;;;;;;;-145.18;100.00;46705.31;5030171;28;20048;-67
2022/11/14 00:36:58;;;;;;;18.70;13.20;;;;;;;-145.18;100.00;46709.22;5029864;28;20498;-68
2022/11/14 00:39:23;;;;;;;18.33;14.33;;;;;;;-145.18;100.00;46709.22;5030378;28;20282;-67
2022/11/14 00:41:49;;;;;;;20.50;14.60;;;;;;;-145.18;100.00;46703.38;5029638;28;20455;-68
2022/11/14 00:44:14;;;;;;;18.13;14.07;;;;;;;-145.18;100.00;46699.47;5029849;28;20030;-68
2022/11/14 00:46:39;;;;;;;19.90;14.93;;;;;;;-145.18;100.00;46695.56;5028590;28;20037;-67
2022/11/14 00:49:05;;;;;;;19.27;13.87;;;;;;;-145.18;100.00;46699.47;5028606;28;20113;-67
2022/11/14 00:51:30;;;;;;;19.87;13.87;;;;;;;-145.18;100.00;46703.38;5029893;28;20061;-67
2022/11/14 00:53:55;;;;;;;21.47;15.03;;;;;;;-145.18;100.00;46691.66;5030090;28;20021;-67
2022/11/14 00:56:21;;;;;;;19.33;13.67;;;;;;;-145.18;100.00;46685.78;5028990;28;20405;-68
2022/11/14 00:58:46;;;;;;;21.70;14.20;;;;;;;-145.18;100.00;46687.75;5025853;28;20051;-67
2022/11/14 01:01:11;;;;;;;20.83;14.60;;;;;;;-145.18;100.00;46699.47;5029370;28;20068;-67
2022/11/14 01:03:37;;;;;;;20.73;14.83;;;;;;;-145.18;100.00;46699.47;5029804;28;20117;-67
2022/11/14 01:06:05;;;;;;;21.20;15.30;;;;;;;-145.18;100.00;46687.75;5029492;28;20041;-67
2022/11/14 01:08:30;;;;;;;20.07;14.37;;;;;;;-145.18;100.00;46689.69;5029771;28;20057;-67
2022/11/14 01:10:56;;;;;;;21.07;14.40;;;;;;;-145.18;100.00;46691.66;5029653;28;20402;-67
2022/11/14 01:13:21;;;;;;;20.97;14.73;;;;;;;-145.18;100.00;46685.78;5029521;28;20068;-67
2022/11/14 01:15:48;;;;;;;19.77;14.17;;;;;;;-145.18;100.00;46689.69;5029732;28;20041;-67
2022/11/14 01:18:19;;;;;;;20.87;13.93;;;;;;;-145.18;100.00;46687.75;5029353;28;20037;-68
2022/11/14 01:20:46;;;;;;;22.30;14.53;;;;;;;-145.18;100.00;46693.59;5029454;28;20267;-68
2022/11/14 01:23:13;;;;;;;22.10;14.27;;;;;;;-145.18;100.00;46687.75;5029072;28;20298;-67
2022/11/14 01:25:40;;;;;;;21.73;14.80;;;;;;;-145.18;100.00;46685.78;5029749;28;20274;-67
2022/11/14 01:28:07;;;;;;;20.70;14.73;;;;;;;-145.18;100.00;46689.69;5029251;28;20274;-68
2022/11/14 01:30:32;;;;;;;20.47;14.70;;;;;;;-145.18;100.00;46685.78;5029393;28;20332;-68
2022/11/14 01:32:58;;;;;;;20.10;13.03;;;;;;;-145.18;100.00;46693.59;5029501;28;20757;-67
2022/11/14 01:35:23;;;;;;;18.33;13.83;;;;;;;-145.18;100.00;46679.94;5029422;28;20037;-68
2022/11/14 01:37:48;;;;;;;17.43;13.27;;;;;;;-145.18;100.00;46685.78;5029487;28;20033;-68
2022/11/14 01:40:14;;;;;;;21.47;14.43;;;;;;;-145.18;100.00;46687.75;5029485;28;20033;-68
2022/11/14 01:42:39;;;;;;;19.47;14.27;;;;;;;-145.18;100.00;46681.88;5029323;28;20124;-68
2022/11/14 01:45:45;;;;;;;19.47;14.67;;;;;;;-145.18;100.00;46687.75;5029351;28;20077;-68
2022/11/14 01:48:26;;;;;;;21.40;15.03;;;;;;;-145.18;100.00;46683.84;5029075;28;20117;-67
2022/11/14 01:50:57;;;;;;;23.40;16.27;;;;;;;-145.18;100.00;46683.84;5029494;28;20278;-67
2022/11/14 01:53:24;;;;;;;21.70;14.77;;;;;;;-145.18;100.00;46691.66;5028976;28;20352;-68
2022/11/14 01:55:51;;;;;;;23.53;16.17;;;;;;;-145.18;100.00;46683.84;5029455;28;20337;-68
2022/11/14 01:58:17;;;;;;;21.60;15.57;;;;;;;-145.18;100.00;46687.75;5029000;28;20279;-68
2022/11/14 02:00:43;;;;;;;18.30;14.10;;;;;;;-145.18;100.00;46691.66;5029055;28;20294;-68
2022/11/14 02:03:12;;;;;;;24.03;15.23;;;;;;;-145.18;100.00;46691.66;5028945;28;20045;-68
2022/11/14 02:05:37;;;;;;;22.53;14.20;;;;;;;-145.18;100.00;46691.66;5029175;28;20619;-68
2022/11/14 02:08:03;;;;;;;21.27;14.83;;;;;;;-145.18;100.00;46703.38;5028842;28;20275;-67
2022/11/14 02:10:28;;;;;;;21.90;15.03;;;;;;;-145.18;100.00;46689.69;5029234;28;20429;-67
2022/11/14 02:12:54;;;;;;;20.97;15.20;;;;;;;-145.18;100.00;46699.47;5032299;28;20033;-67
2022/11/14 02:15:19;;;;;;;21.53;15.50;;;;;;;-145.18;100.00;46697.50;5032747;28;20037;-67
2022/11/14 02:17:44;;;;;;;23.13;16.43;;;;;;;-145.18;100.00;46689.69;5032546;28;20033;-68
2022/11/14 02:20:10;;;;;;;23.17;15.83;;;;;;;-145.18;100.00;46693.59;5023672;28;20029;-67
2022/11/14 02:22:37;;;;;;;21.63;15.83;;;;;;;-145.18;100.00;46691.66;5032255;28;20033;-67
2022/11/14 02:25:03;;;;;;;21.83;15.07;;;;;;;-145.18;100.00;46693.59;5031175;28;20112;-67
2022/11/14 02:27:30;;;;;;;21.33;14.87;;;;;;;-145.18;100.00;46697.50;5032464;28;20374;-67
2022/11/14 02:30:07;;;;;;;21.33;14.90;;;;;;;-145.18;100.00;46689.69;5032419;28;20032;-68
2022/11/14 02:32:33;;;;;;;22.63;15.03;;;;;;;-145.18;100.00;46695.56;5031842;28;20289;-67
2022/11/14 02:34:58;;;;;;;22.37;14.70;;;;;;;-145.18;100.00;46697.50;5032398;28;20597;-68
2022/11/14 02:37:24;;;;;;;23.90;16.43;;;;;;;-145.18;100.00;46689.69;5032277;28;20032;-67
2022/11/14 02:39:49;;;;;;;21.33;15.33;;;;;;;-145.18;100.00;46699.47;5032330;28;20630;-67
2022/11/14 02:42:14;;;;;;;24.83;15.30;;;;;;;-145.18;100.00;46695.56;5031708;28;20518;-67
2022/11/14 02:44:40;;;;;;;22.30;15.70;;;;;;;-145.18;100.00;46695.56;5032420;28;20508;-67
2022/11/14 02:47:05;;;;;;;24.83;16.37;;;;;;;-145.18;100.00;46699.47;5030531;28;20068;-67
2022/11/14 02:49:31;;;;;;;24.17;16.70;;;;;;;-145.18;100.00;46699.47;5032203;28;20037;-67
2022/11/14 02:51:56;;;;;;;26.20;15.47;;;;;;;-145.18;100.00;46707.28;5031805;28;20036;-67
2022/11/14 02:54:21;;;;;;;25.30;16.53;;;;;;;-145.18;100.00;46695.56;5031912;28;20037;-68
2022/11/14 02:56:46;;;;;;;25.90;16.50;;;;;;;-145.18;100.00;46687.75;5031742;28;20040;-67
2022/11/14 02:59:12;;;;;;;25.17;15.77;;;;;;;-145.18;100.00;46685.78;5023102;28;20038;-68
2022/11/14 03:04:12;;;;;;;28.35;16.42;;;;;;;-145.18;100.00;46689.69;5006615;23;20065;-67
2022/11/14 03:06:38;;;;;;;24.10;15.60;;;;;;;-145.18;100.00;46685.78;4999629;28;20030;-68
2022/11/14 03:09:03;;;;;;;27.67;17.13;;;;;;;-145.18;100.00;46683.84;5011710;28;20160;-67
2022/11/14 03:11:30;;;;;;;24.97;16.63;;;;;;;-145.18;100.00;46685.78;5012114;28;20034;-68
2022/11/14 03:13:55;;;;;;;29.43;17.43;;;;;;;-145.18;100.00;46683.84;5011860;28;20030;-67
2022/11/14 03:16:20;;;;;;;27.93;17.93;;;;;;;-145.18;100.00;46683.84;5012208;28;20295;-68
2022/11/14 03:18:46;;;;;;;26.37;17.50;;;;;;;-145.18;100.00;46679.94;5011619;28;20034;-67
2022/11/14 03:21:14;;;;;;;26.67;17.83;;;;;;;-145.18;100.00;46689.69;5011934;28;20474;-67
2022/11/14 03:23:40;;;;;;;28.17;18.10;;;;;;;-145.18;100.00;46687.75;5010297;28;20033;-67
2022/11/14 03:26:08;;;;;;;28.90;17.13;;;;;;;-145.18;100.00;46679.94;5011949;28;20275;-68
2022/11/14 03:28:34;;;;;;;32.53;19.00;;;;;;;-145.18;100.00;46681.88;4993800;28;20121;-67
2022/11/14 03:30:59;;;;;;;33.03;18.93;;;;;;;-145.18;100.00;46677.97;4982363;28;20272;-67
2022/11/14 03:33:24;;;;;;;31.17;18.80;;;;;;;-145.18;100.00;46685.78;4972528;28;20750;-67
2022/11/14 03:35:50;;;;;;;33.23;19.83;;;;;;;-145.18;100.00;46679.94;4972393;28;20039;-67
2022/11/14 03:38:17;;;;;;;31.73;18.63;;;;;;;-145.18;100.00;46677.97;4972365;28;20070;-67
2022/11/14 03:40:42;;;;;;;31.50;19.30;;;;;;;-145.18;100.00;46685.78;4972555;28;20359;-67
2022/11/14 03:43:07;;;;;;;31.60;19.13;;;;;;;-145.18;100.00;46677.97;4972402;28;20945;-67
2022/11/14 03:45:34;;;;;;;35.23;19.77;;;;;;;-145.18;100.00;46672.13;4972236;28;20406;-68
2022/11/14 03:48:00;;;;;;;31.43;18.37;;;;;;;-145.18;100.00;46679.94;4972419;28;20371;-67
2022/11/14 03:50:25;;;;;;;34.37;20.90;;;;;;;-145.18;100.00;46670.16;4972243;28;20753;-67
2022/11/14 03:52:50;;;;;;;34.63;20.53;;;;;;;-145.18;100.00;46683.84;4972177;28;20507;-67
2022/11/14 03:55:16;;;;;;;33.30;20.53;;;;;;;-145.18;100.00;46679.94;4972292;28;20435;-67
2022/11/14 03:57:41;;;;;;;36.87;20.70;;;;;;;-145.18;100.00;46681.88;4972039;28;20844;-67
2022/11/14 04:00:08;;;;;;;35.20;20.07;;;;;;;-145.18;100.00;46679.94;4971608;28;20035;-67
2022/11/14 04:02:33;;;;;;;34.37;22.23;;;;;;;-145.18;100.00;46681.88;4971550;28;20043;-67
2022/11/14 04:04:58;;;;;;;34.80;21.50;;;;;;;-145.18;100.00;46681.88;4972305;28;20352;-67
2022/11/14 04:07:24;;;;;;;34.97;20.77;;;;;;;-145.18;100.00;46679.94;4971996;28;20031;-68
2022/11/14 04:09:50;;;;;;;40.13;21.87;;;;;;;-145.18;100.00;46672.13;4968445;28;20101;-67
2022/11/14 04:12:16;;;;;;;32.93;20.33;;;;;;;-145.18;100.00;46674.06;4971761;28;20031;-67
2022/11/14 04:14:42;;;;;;;38.97;21.53;;;;;;;-145.18;100.00;46677.97;4971901;28;20265;-67
2022/11/14 04:17:07;;;;;;;32.63;20.67;;;;;;;-145.18;100.00;46674.06;4972016;28;20400;-67
2022/11/14 04:19:32;;;;;;;36.83;20.63;;;;;;;-145.18;100.00;46674.06;4971452;28;20042;-68
2022/11/14 04:21:58;;;;;;;33.77;20.37;;;;;;;-145.18;100.00;46674.06;4971645;28;20039;-68
2022/11/14 04:24:23;;;;;;;40.37;21.60;;;;;;;-145.18;100.00;46676.03;4971847;28;20399;-67
2022/11/14 04:26:48;;;;;;;33.63;20.43;;;;;;;-145.18;100.00;46677.97;4971542;28;20400;-67
2022/11/14 04:29:13;;;;;;;32.30;19.27;;;;;;;-145.18;100.00;46674.06;4971755;28;20046;-68
2022/11/14 04:31:39;;;;;;;32.20;19.63;;;;;;;-145.18;100.00;46681.88;4971711;28;20140;-67
2022/11/14 04:34:04;;;;;;;35.40;20.27;;;;;;;-145.18;100.00;46674.06;4971240;28;20166;-67
2022/11/14 04:36:30;;;;;;;35.17;20.73;;;;;;;-145.18;100.00;46681.88;4971626;28;20034;-67
2022/11/14 04:38:55;;;;;;;36.77;21.27;;;;;;;-145.18;100.00;46681.88;4971391;28;20035;-67
2022/11/14 04:41:20;;;;;;;31.40;19.73;;;;;;;-145.18;100.00;46685.78;4971493;28;20023;-67
2022/11/14 04:43:46;;;;;;;34.83;19.97;;;;;;;-145.18;100.00;46676.03;4971111;28;20117;-67
2022/11/14 04:46:11;;;;;;;34.43;20.23;;;;;;;-145.18;100.00;46677.97;4971610;28;20178;-67
2022/11/14 04:48:36;;;;;;;30.87;18.90;;;;;;;-145.18;100.00;46679.94;4970956;28;20399;-67
2022/11/14 04:51:02;;;;;;;35.30;20.30;;;;;;;-145.18;100.00;46677.97;4971672;28;20479;-67
2022/11/14 04:53:27;;;;;;;32.73;18.93;;;;;;;-145.18;100.00;46681.88;4971259;28;20134;-67
2022/11/14 04:55:52;;;;;;;40.30;20.87;;;;;;;-145.18;100.00;46681.88;4971252;28;20399;-67
2022/11/14 04:58:18;;;;;;;30.23;18.57;;;;;;;-145.18;100.00;46676.03;4954114;28;20034;-67
2022/11/14 05:00:43;;;;;;;34.47;19.80;;;;;;;-145.18;100.00;46683.84;4971187;28;20117;-67
2022/11/14 05:03:08;;;;;;;34.17;20.17;;;;;;;-145.18;100.00;46672.13;4973724;28;20062;-67
2022/11/14 05:05:34;;;;;;;36.33;21.07;;;;;;;-145.18;100.00;46672.13;5010100;28;20077;-67
2022/11/14 05:07:59;;;;;;;37.13;21.47;;;;;;;-145.18;100.00;46681.88;5010358;28;20045;-67
2022/11/14 05:10:24;;;;;;;34.83;19.60;;;;;;;-145.18;100.00;46683.84;5010388;28;20568;-68
2022/11/14 05:12:53;;;;;;;30.20;18.50;;;;;;;-145.18;100.00;46677.97;5009902;28;20437;-67
2022/11/14 05:15:19;;;;;;;33.70;19.73;;;;;;;-145.18;100.00;46679.94;5010292;28;20041;-67
2022/11/14 05:17:45;;;;;;;33.77;19.73;;;;;;;-145.18;100.00;46677.97;5009669;28;20384;-67
2022/11/14 05:20:10;;;;;;;32.17;20.10;;;;;;;-145.18;100.00;46677.97;5010412;28;20483;-68
2022/11/14 05:22:36;;;;;;;36.60;20.63;;;;;;;-145.18;100.00;46681.88;5009615;28;20056;-68
2022/11/14 05:25:01;;;;;;;37.90;20.63;;;;;;;-145.18;100.00;46677.97;5010173;28;20482;-67
2022/11/14 05:27:27;;;;;;;33.43;20.00;;;;;;;-145.18;100.00;46679.94;5009976;28;20112;-67
2022/11/14 05:29:54;;;;;;;32.63;20.50;;;;;;;-145.18;100.00;46685.78;5009889;28;20103;-67
2022/11/14 05:32:20;;;;;;;37.97;20.77;;;;;;;-145.18;100.00;46677.97;5010153;28;20279;-67
2022/11/14 05:34:45;;;;;;;34.50;20.77;;;;;;;-145.18;100.00;46677.97;5009841;28;20271;-67
2022/11/14 05:37:10;;;;;;;36.20;19.93;;;;;;;-145.18;100.00;46676.03;5009827;28;20053;-68
2022/11/14 05:39:36;;;;;;;31.93;19.37;;;;;;;-145.18;100.00;46676.03;5009752;28;20061;-67
2022/11/14 05:42:01;;;;;;;39.80;21.20;;;;;;;-145.18;100.00;46681.88;5009475;28;20034;-67
2022/11/14 05:44:26;;;;;;;38.93;21.30;;;;;;;-145.18;100.00;46674.06;5009884;28;20108;-67
2022/11/14 05:46:52;;;;;;;35.40;20.97;;;;;;;-145.18;100.00;46679.94;5011380;28;20073;-67
2022/11/14 05:49:17;;;;;;;37.97;19.97;;;;;;;-145.18;100.00;46679.94;5013444;28;20029;-68
2022/11/14 05:51:42;;;;;;;37.50;21.67;;;;;;;-145.18;100.00;46674.06;5013662;28;20413;-67
2022/11/14 05:54:08;;;;;;;38.13;21.57;;;;;;;-145.18;100.00;46677.97;5013411;28;20452;-67
2022/11/14 05:56:33;;;;;;;42.00;22.63;;;;;;;-145.18;100.00;46681.88;5013310;28;20038;-67
2022/11/14 05:58:58;;;;;;;33.87;19.97;;;;;;;-145.18;100.00;46679.94;5013489;28;20143;-67
2022/11/14 06:01:24;;;;;;;41.57;21.27;;;;;;;-145.18;100.00;46681.88;5013022;28;20034;-67
2022/11/14 06:03:49;;;;;;;33.83;19.13;;;;;;;-145.18;100.00;46679.94;5012830;28;20042;-67
2022/11/14 06:06:18;;;;;;;30.57;19.27;;;;;;;-145.18;100.00;46679.94;5013632;28;20091;-67
2022/11/14 06:08:44;;;;;;;38.53;20.70;;;;;;;-145.18;100.00;46679.94;5013082;28;20129;-67
2022/11/14 06:11:11;;;;;;;33.10;19.43;;;;;;;-145.18;100.00;46679.94;5013258;28;20835;-67
2022/11/14 06:13:37;;;;;;;36.40;21.40;;;;;;;-145.18;100.00;46685.78;4997197;28;20046;-67
2022/11/14 06:16:05;;;;;;;33.57;20.23;;;;;;;-145.18;100.00;46679.94;4992914;28;20279;-67
2022/11/14 06:18:32;;;;;;;34.27;19.07;;;;;;;-145.18;100.00;46676.03;4993526;28;20081;-67
2022/11/14 06:21:05;;;;;;;32.57;19.70;;;;;;;-145.18;100.00;46677.97;4993380;28;20267;-67
2022/11/14 06:23:30;;;;;;;30.93;18.27;;;;;;;-145.18;100.00;46677.97;4993251;28;20310;-67
2022/11/14 06:26:00;;;;;;;30.70;19.30;;;;;;;-145.18;100.00;46681.88;4976605;28;20758;-67
2022/11/14 06:28:27;;;;;;;37.57;18.77;;;;;;;-145.18;100.00;46679.94;4973689;28;20034;-67
2022/11/14 06:30:57;;;;;;;33.33;17.80;;;;;;;-145.18;100.00;46677.97;4973882;28;20633;-67
2022/11/14 06:33:22;;;;;;;31.67;18.27;;;;;;;-145.18;100.00;46679.94;4972435;28;20761;-67
2022/11/14 06:35:48;;;;;;;33.87;19.37;;;;;;;-145.18;100.00;46681.88;4973316;28;20364;-67
2022/11/14 06:38:13;;;;;;;33.67;19.30;;;;;;;-145.18;100.00;46677.97;4997460;28;20037;-67
2022/11/14 06:40:38;;;;;;;35.10;19.00;;;;;;;-145.18;100.00;46677.97;5008528;28;20046;-67
2022/11/14 06:43:04;;;;;;;36.63;18.50;;;;;;;-145.18;100.00;46679.94;5010871;28;20084;-67
2022/11/14 06:45:29;;;;;;;32.70;18.40;;;;;;;-145.18;100.00;46679.94;5011154;28;20509;-68
2022/11/14 06:47:58;;;;;;;33.57;19.13;;;;;;;-145.18;100.00;46683.84;4985482;28;20073;-67
2022/11/14 06:50:24;;;;;;;27.47;17.33;;;;;;;-145.18;100.00;46676.03;4973118;28;20038;-67
2022/11/14 06:52:49;;;;;;;27.30;17.80;;;;;;;-145.18;100.00;46681.88;4972716;28;20295;-67
2022/11/14 06:55:14;;;;;;;28.00;17.03;;;;;;;-145.18;100.00;46685.78;4976552;28;20038;-67
2022/11/14 06:57:40;;;;;;;31.03;16.97;;;;;;;-145.18;100.00;46683.84;4991826;28;20034;-67
2022/11/14 07:00:06;;;;;;;29.20;16.70;;;;;;;-145.18;100.00;46687.75;4992299;28;20511;-67
2022/11/14 07:02:31;;;;;;;27.60;16.63;;;;;;;-145.18;100.00;46683.84;4991298;28;20042;-67
2022/11/14 07:04:57;;;;;;;28.70;17.17;;;;;;;-145.18;100.00;46676.03;4991490;28;20303;-67
2022/11/14 07:07:22;;;;;;;26.63;16.70;;;;;;;-145.18;100.00;46679.94;4992463;28;20176;-67
2022/11/14 07:09:48;;;;;;;25.13;15.63;;;;;;;-145.18;100.00;46677.97;4990926;28;20129;-67
2022/11/14 07:12:13;;;;;;;25.97;16.40;;;;;;;-145.18;100.00;46681.88;4991997;28;20070;-67
2022/11/14 07:14:38;;;;;;;34.13;16.10;;;;;;;-145.18;100.00;46681.88;4991903;28;20034;-67
2022/11/14 07:17:04;;;;;;;29.90;15.73;;;;;;;-145.18;100.00;46681.88;4992157;28;20034;-67
2022/11/14 07:19:29;;;;;;;26.07;15.97;;;;;;;-145.18;100.00;46687.75;4991933;28;20115;-67
2022/11/14 07:21:54;;;;;;;27.37;15.37;;;;;;;-145.18;100.00;46679.94;4991678;28;20118;-67
2022/11/14 07:24:20;;;;;;;23.23;14.97;;;;;;;-145.18;100.00;46683.84;4991641;28;20073;-67
2022/11/14 07:26:45;;;;;;;24.17;15.27;;;;;;;-145.18;100.00;46683.84;4989923;28;20533;-67
2022/11/14 07:29:10;;;;;;;27.07;15.80;;;;;;;-145.18;100.00;46689.69;4978129;28;20719;-67
2022/11/14 07:31:36;;;;;;;27.00;14.83;;;;;;;-145.18;100.00;46679.94;4991417;28;20041;-67
2022/11/14 07:34:01;;;;;;;27.70;15.30;;;;;;;-145.18;100.00;46685.78;4991472;28;20042;-67
2022/11/14 07:36:27;;;;;;;27.93;14.93;;;;;;;-145.18;100.00;46685.78;4990510;28;20046;-67
2022/11/14 07:38:53;;;;;;;25.07;14.50;;;;;;;-145.18;100.00;46683.84;4988087;28;20046;-67
2022/11/14 07:41:18;;;;;;;22.63;14.37;;;;;;;-145.18;100.00;46683.84;4991702;28;20038;-67
2022/11/14 07:43:44;;;;;;;20.67;13.30;;;;;;;-145.18;100.00;46687.75;4990312;28;20042;-67
2022/11/14 07:46:12;;;;;;;25.30;14.23;;;;;;;-145.18;100.00;46693.59;4991595;28;20061;-67
2022/11/14 07:48:38;;;;;;;26.73;15.00;;;;;;;-145.18;100.00;46683.84;4990961;28;20033;-67
2022/11/14 07:51:11;;;;;;;20.50;14.37;;;;;;;-145.18;100.00;46681.88;4991531;28;20757;-67
2022/11/14 07:53:37;;;;;;;23.10;13.27;;;;;;;-145.18;100.00;46685.78;4990838;28;20388;-67
2022/11/14 07:56:10;;;;;;;24.23;13.90;;;;;;;-145.18;100.00;46683.84;4991319;28;20276;-67
2022/11/14 07:58:39;;;;;;;23.20;14.60;;;;;;;-145.18;100.00;46691.66;4990885;28;20030;-67
2022/11/14 08:01:06;;;;;;;23.63;14.73;;;;;;;-145.18;100.00;46689.69;4990585;28;20375;-67
2022/11/14 08:03:32;;;;;;;22.47;14.50;;;;;;;-145.18;100.00;46683.84;4990545;28;20344;-67
2022/11/14 08:06:01;;;;;;;27.67;14.47;;;;;;;-145.18;100.00;46681.88;4990642;28;20303;-67
2022/11/14 08:08:26;;;;;;;26.03;15.83;;;;;;;-145.18;100.00;46681.88;4990455;28;20387;-67
2022/11/14 08:10:56;;;;;;;29.73;15.17;;;;;;;-145.18;100.00;46681.88;4990339;28;20315;-67
2022/11/14 08:13:21;;;;;;;25.50;15.67;;;;;;;-145.18;100.00;46683.84;4990923;28;20275;-67
2022/11/14 08:15:47;;;;;;;21.43;13.80;;;;;;;-145.18;100.00;46681.88;4990636;28;20733;-67
2022/11/14 08:18:12;;;;;;;23.53;14.10;;;;;;;-145.18;100.00;46679.94;4990531;28;20030;-67
2022/11/14 08:20:37;;;;;;;25.53;14.80;;;;;;;-145.18;100.00;46683.84;4990623;28;20114;-67
2022/11/14 08:23:05;;;;;;;27.80;14.87;;;;;;;-145.18;100.00;46677.97;5005460;28;20061;-67
2022/11/14 08:25:31;;;;;;;19.90;13.53;;;;;;;-145.18;100.00;46679.94;4990693;28;20052;-67
2022/11/14 08:27:56;;;;;;;22.10;14.80;;;;;;;-145.18;100.00;46683.84;4990188;28;20272;-67
2022/11/14 08:30:22;;;;;;;21.03;12.97;;;;;;;-145.18;100.00;46683.84;4990620;28;20479;-68
2022/11/14 08:32:47;;;;;;;22.93;14.10;;;;;;;-145.18;100.00;46679.94;4990211;28;20407;-67
2022/11/14 08:35:13;;;;;;;21.80;13.27;;;;;;;-145.18;100.00;46679.94;4990648;28;20577;-67
2022/11/14 08:37:38;;;;;;;23.37;13.10;;;;;;;-145.18;100.00;46679.94;4989888;28;20061;-67
2022/11/14 08:40:05;;;;;;;28.03;14.40;;;;;;;-145.18;100.00;46679.94;4990483;28;20034;-67
2022/11/14 08:42:30;;;;;;;25.83;13.70;;;;;;;-145.18;100.00;46679.94;4990277;28;20502;-67
2022/11/14 08:44:56;;;;;;;24.73;13.97;;;;;;;-145.18;100.00;46679.94;4989261;28;20279;-67
2022/11/14 08:47:21;;;;;;;27.20;14.20;;;;;;;-145.18;100.00;46679.94;4983947;28;20125;-67
2022/11/14 08:49:46;;;;;;;20.57;13.37;;;;;;;-145.18;100.00;46683.84;4989209;28;20034;-68
2022/11/14 08:52:12;;;;;;;19.40;13.17;;;;;;;-145.18;100.00;46685.78;4990089;28;20046;-67
2022/11/14 08:54:37;;;;;;;20.10;12.90;;;;;;;-145.18;100.00;46685.78;4989691;28;20030;-68
2022/11/14 08:57:03;;;;;;;17.03;12.03;;;;;;;-145.18;100.00;46683.84;4989613;28;20048;-67
2022/11/14 08:59:29;;;;;;;21.27;12.97;;;;;;;-145.18;100.00;46679.94;4989676;28;20026;-67
2022/11/14 09:01:55;;;;;;;22.63;13.50;;;;;;;-145.18;100.00;46679.94;4989066;28;20838;-67
2022/11/14 09:04:20;;;;;;;20.37;13.47;;;;;;;-145.18;100.00;46677.97;4989622;28;20399;-67
2022/11/14 09:06:46;;;;;;;19.17;12.07;;;;;;;-145.18;100.00;46681.88;4989778;28;20066;-67
2022/11/14 09:09:11;;;;;;;20.70;13.63;;;;;;;-145.18;100.00;46681.88;4989533;28;20122;-67
2022/11/14 09:11:37;;;;;;;20.27;13.40;;;;;;;-145.18;100.00;46681.88;4989629;28;20129;-67
2022/11/14 09:14:02;;;;;;;19.40;12.20;;;;;;;-145.18;100.00;46679.94;4989663;28;20121;-67
2022/11/14 09:16:27;;;;;;;19.00;12.80;;;;;;;-145.18;100.00;46681.88;4989607;28;20081;-67
2022/11/14 09:18:53;;;;;;;18.67;12.33;;;;;;;-145.18;100.00;46677.97;4989262;28;20027;-67
2022/11/14 09:21:18;;;;;;;16.93;12.30;;;;;;;-145.18;100.00;46679.94;4992380;28;20041;-67
2022/11/14 09:23:46;;;;;;;17.93;12.67;;;;;;;-145.18;100.00;46672.13;4993352;28;20037;-67
2022/11/14 09:26:11;;;;;;;21.03;13.23;;;;;;;-145.18;100.00;46676.03;4992049;28;20057;-67
2022/11/14 09:28:36;;;;;;;18.47;12.73;;;;;;;-145.18;100.00;46662.34;4993543;28;20387;-67
2022/11/14 09:31:08;;;;;;;17.83;11.63;;;;;;;-145.18;100.00;46660.41;4993765;28;20117;-67
2022/11/14 09:33:34;;;;;;;20.00;12.50;;;;;;;-145.18;100.00;46652.59;4993291;28;20026;-68
2022/11/14 09:36:02;;;;;;;23.27;12.80;;;;;;;-145.18;100.00;46646.72;4993829;28;20617;-68
2022/11/14 09:38:28;;;;;;;17.57;11.73;;;;;;;-145.18;100.00;46633.06;4993191;28;20298;-67
2022/11/14 09:40:53;;;;;;;18.60;11.87;;;;;;;-145.18;100.00;46613.50;4993483;28;20271;-68
2022/11/14 09:43:18;;;;;;;19.20;11.70;;;;;;;-145.18;100.00;46593.97;4993067;28;20030;-68
2022/11/14 09:45:49;;;;;;;19.03;12.40;;;;;;;-145.18;100.00;46593.97;4993228;28;20092;-68
2022/11/14 09:48:21;;;;;;;18.17;11.47;;;;;;;-145.18;100.00;46582.25;4992849;28;20031;-68
2022/11/14 09:51:08;;;;;;;15.73;11.37;;;;;;;-145.18;100.00;46562.72;4993242;28;20287;-68
2022/11/14 09:53:49;;;;;;;18.63;10.93;;;;;;;-145.18;100.00;46566.63;4992944;28;20264;-68
2022/11/14 09:56:20;;;;;;;17.23;11.00;;;;;;;-145.18;100.00;46568.59;4993275;28;20264;-68
2022/11/14 09:58:45;;;;;;;16.40;11.40;;;;;;;-145.18;100.00;46564.69;4975129;28;20264;-68
2022/11/14 10:01:16;;;;;;;19.57;11.27;;;;;;;-145.18;100.00;46568.59;4975653;28;20275;-68
2022/11/14 10:03:59;;;;;;;15.00;11.03;;;;;;;-145.18;100.00;46576.41;4992474;28;20051;-68
2022/11/14 10:06:25;;;;;;;18.33;11.30;;;;;;;-145.18;100.00;46582.25;4992547;28;20288;-68
2022/11/14 10:09:05;;;;;;;20.50;10.73;;;;;;;-145.18;100.00;46586.16;4992622;28;20294;-68
2022/11/14 10:11:46;;;;;;;16.77;11.00;;;;;;;-145.18;100.00;46599.84;4992806;28;20026;-68
2022/11/14 10:14:18;;;;;;;18.53;11.30;;;;;;;-145.18;100.00;46599.84;4992927;28;20343;-68
2022/11/14 10:17:33;;;;;;;20.43;11.80;;;;;;;-145.18;100.00;46601.78;4992855;28;20355;-68
2022/11/14 10:20:08;;;;;;;17.27;11.43;;;;;;;-145.18;100.00;46615.47;4956552;28;20297;-68
2022/11/14 10:23:04;;;;;;;22.93;12.67;;;;;;;-145.18;100.00;46619.38;4984846;28;20761;-68
2022/11/14 10:25:39;;;;;;;17.00;11.52;;;;;;;-145.18;100.00;46613.50;4992747;28;20264;-68
2022/11/14 10:28:56;;;;;;;20.70;11.73;;;;;;;-145.18;100.00;46609.59;4992950;28;20026;-68
2022/11/14 10:31:33;;;;;;;26.15;12.32;;;;;;;-145.18;100.00;46627.19;4951171;28;20944;-68
2022/11/14 10:34:25;;;;;;;19.40;11.97;;;;;;;-145.18;100.00;46642.81;4991373;28;20030;-68
2022/11/14 10:37:05;;;;;;;18.70;11.40;;;;;;;-145.18;100.00;46652.59;4992480;28;20649;-68
2022/11/14 10:39:38;;;;;;;17.90;11.67;;;;;;;-145.18;100.00;46660.41;4992160;28;20280;-68
2022/11/14 10:42:11;;;;;;;17.60;11.47;;;;;;;-145.18;100.00;46676.03;4992398;28;20335;-68
2022/11/14 10:44:43;;;;;;;21.37;11.53;;;;;;;-145.18;100.00;46679.94;4991968;28;20291;-68
2022/11/14 10:47:17;;;;;;;18.00;11.83;;;;;;;-145.18;100.00;46674.06;4992163;28;20256;-68
2022/11/14 10:49:45;;;;;;;22.93;10.87;;;;;;;-145.18;100.00;46654.53;4991860;28;20264;-68
2022/11/14 10:52:21;;;;;;;19.90;11.50;;;;;;;-145.18;100.00;46679.94;4992327;28;20803;-68
2022/11/14 10:54:58;;;;;;;18.42;10.13;;;;;;;-145.18;100.00;46677.97;4991559;28;20264;-69
2022/11/14 10:57:30;;;;;;;18.90;11.37;;;;;;;-145.18;100.00;46695.56;4992395;28;20394;-68